createdAt,value
2022-12-16T00:02:18.760Z,26.05
2022-12-16T00:04:46.468Z,26.00
2022-12-16T00:07:13.796Z,26.45
2022-12-16T00:09:41.183Z,24.00
2022-12-16T00:12:08.604Z,24.63
2022-12-16T00:14:36.072Z,25.92
2022-12-16T00:17:03.334Z,23.85
2022-12-16T00:19:31.794Z,27.15
2022-12-16T00:21:59.084Z,26.25
2022-12-16T00:24:26.435Z,25.55
2022-12-16T00:26:53.758Z,25.85
2022-12-16T00:29:22.194Z,24.92
2022-12-16T00:31:52.077Z,20.75
2022-12-16T00:34:20.250Z,22.33
2022-12-16T00:36:47.708Z,20.20
2022-12-16T00:39:15.239Z,19.85
2022-12-16T00:41:42.876Z,20.67
2022-12-16T00:44:10.570Z,18.63
2022-12-16T00:46:37.798Z,17.27
2022-12-16T00:49:05.545Z,15.80
2022-12-16T00:51:33.039Z,15.95
2022-12-16T00:54:00.826Z,15.07
2022-12-16T00:56:28.083Z,13.65
2022-12-16T00:58:55.529Z,13.13
2022-12-16T01:01:23.101Z,12.68
2022-12-16T01:03:50.619Z,13.77
2022-12-16T01:06:18.393Z,12.00
2022-12-16T01:08:48.985Z,12.15
2022-12-16T01:13:46.077Z,12.07
2022-12-16T01:16:13.308Z,11.98
2022-12-16T01:18:43.152Z,11.98
2022-12-16T01:21:14.029Z,11.30
2022-12-16T01:23:41.428Z,12.13
2022-12-16T01:26:15.658Z,12.30
2022-12-16T01:28:42.989Z,11.27
2022-12-16T01:31:11.043Z,12.13
2022-12-16T01:33:38.733Z,11.13
2022-12-16T01:36:07.946Z,10.98
2022-12-16T01:38:36.223Z,9.68
2022-12-16T01:41:04.743Z,9.98
2022-12-16T01:43:36.256Z,9.13
2022-12-16T01:46:24.972Z,8.70
2022-12-16T01:49:07.043Z,8.20
2022-12-16T01:51:48.851Z,9.25
2022-12-16T01:54:24.478Z,8.73
2022-12-16T01:56:56.063Z,8.07
2022-12-16T01:59:28.389Z,8.60
2022-12-16T02:01:56.571Z,9.73
2022-12-16T02:04:23.985Z,10.07
2022-12-16T02:06:53.575Z,9.75
2022-12-16T02:12:01.378Z,9.68
2022-12-16T02:14:31.638Z,10.90
2022-12-16T02:17:17.762Z,11.30
2022-12-16T02:20:08.881Z,10.68
2022-12-16T02:22:49.314Z,10.98
2022-12-16T02:25:48.726Z,11.07
2022-12-16T02:29:03.840Z,11.95
2022-12-16T02:31:55.233Z,10.73
2022-12-16T02:34:49.491Z,14.40
2022-12-16T02:37:39.742Z,14.30
2022-12-16T02:40:24.379Z,14.82
2022-12-16T02:42:58.436Z,16.13
2022-12-16T02:45:29.981Z,15.85
2022-12-16T02:47:57.492Z,15.63
2022-12-16T02:50:40.292Z,16.25
2022-12-16T02:53:10.103Z,17.60
2022-12-16T02:56:06.887Z,16.37
2022-12-16T02:59:03.294Z,16.08
2022-12-16T03:01:51.635Z,14.90
2022-12-16T03:04:38.024Z,14.88
2022-12-16T03:07:10.844Z,15.77
2022-12-16T03:09:41.094Z,17.50
2022-12-16T03:12:13.357Z,21.30
2022-12-16T03:14:43.805Z,22.40
2022-12-16T03:17:16.905Z,22.45
2022-12-16T03:20:01.731Z,21.17
2022-12-16T03:22:32.493Z,21.13
2022-12-16T03:27:42.919Z,20.13
2022-12-16T03:30:17.056Z,22.60
2022-12-16T03:32:58.582Z,23.80
2022-12-16T03:35:33.331Z,20.70
2022-12-16T03:38:03.840Z,20.50
2022-12-16T03:40:33.290Z,20.67
2022-12-16T03:43:03.795Z,21.83
2022-12-16T03:45:37.624Z,21.45
2022-12-16T03:48:08.499Z,23.35
2022-12-16T03:50:36.955Z,24.52
2022-12-16T03:53:05.321Z,25.17
2022-12-16T03:55:33.051Z,24.48
2022-12-16T03:58:00.526Z,27.13
2022-12-16T04:00:27.920Z,28.42
2022-12-16T04:02:55.357Z,29.15
2022-12-16T04:05:23.349Z,28.42
2022-12-16T04:07:53.017Z,29.83
2022-12-16T04:10:44.999Z,30.27
2022-12-16T04:13:31.124Z,28.33
2022-12-16T04:16:17.228Z,29.77
2022-12-16T04:19:05.289Z,28.10
2022-12-16T04:21:51.196Z,31.75
2022-12-16T04:24:27.158Z,31.65
2022-12-16T04:27:15.676Z,32.63
2022-12-16T04:30:02.848Z,31.35
2022-12-16T04:32:52.936Z,31.95
2022-12-16T04:35:38.921Z,31.90
2022-12-16T04:38:25.201Z,32.05
2022-12-16T04:41:14.558Z,32.63
2022-12-16T04:44:02.117Z,33.60
2022-12-16T04:46:48.459Z,34.33
2022-12-16T04:49:34.461Z,32.92
2022-12-16T04:52:21.282Z,34.03
2022-12-16T04:55:07.208Z,35.08
2022-12-16T04:57:55.929Z,33.88
2022-12-16T05:00:42.015Z,36.03
2022-12-16T05:03:30.484Z,34.35
2022-12-16T05:06:16.558Z,35.22
2022-12-16T05:09:02.568Z,33.40
2022-12-16T05:11:48.219Z,33.53
2022-12-16T05:14:34.294Z,34.03
2022-12-16T05:17:20.579Z,34.65
2022-12-16T05:20:06.436Z,33.75
2022-12-16T05:22:52.459Z,34.13
2022-12-16T05:25:38.253Z,32.67
2022-12-16T05:28:24.527Z,35.45
2022-12-16T05:31:11.047Z,31.38
2022-12-16T05:33:56.848Z,33.13
2022-12-16T05:36:43.954Z,31.13
2022-12-16T05:39:29.964Z,31.08
2022-12-16T05:42:16.797Z,35.33
2022-12-16T05:45:02.662Z,33.05
2022-12-16T05:47:48.589Z,32.42
2022-12-16T05:50:34.536Z,34.28
2022-12-16T05:53:27.914Z,35.80
2022-12-16T05:56:29.053Z,32.03
2022-12-16T05:59:14.937Z,32.25
2022-12-16T06:02:03.594Z,33.28
2022-12-16T06:04:49.522Z,33.53
2022-12-16T06:07:35.408Z,33.47
2022-12-16T06:10:21.868Z,32.88
2022-12-16T06:13:07.841Z,34.22
2022-12-16T06:15:53.678Z,33.00
2022-12-16T06:18:39.688Z,33.42
2022-12-16T06:21:25.563Z,33.22
2022-12-16T06:24:11.442Z,33.40
2022-12-16T06:26:57.462Z,33.13
2022-12-16T06:29:43.255Z,33.72
2022-12-16T06:32:29.272Z,31.95
2022-12-16T06:35:15.195Z,35.30
2022-12-16T06:38:01.120Z,33.25
2022-12-16T06:40:47.170Z,34.75
2022-12-16T06:43:33.639Z,32.60
2022-12-16T06:46:20.026Z,33.33
2022-12-16T06:49:06.147Z,31.70
2022-12-16T06:51:51.994Z,33.60
2022-12-16T06:54:37.870Z,32.90
2022-12-16T06:57:24.885Z,32.50
2022-12-16T07:00:10.881Z,33.15
2022-12-16T07:02:56.825Z,32.63
2022-12-16T07:05:43.242Z,33.58
2022-12-16T07:08:29.120Z,33.00
2022-12-16T07:11:17.502Z,33.47
2022-12-16T07:14:04.319Z,33.55
2022-12-16T07:16:50.214Z,34.42
2022-12-16T07:19:36.159Z,32.75
2022-12-16T07:22:22.083Z,32.97
2022-12-16T07:25:07.901Z,31.88
2022-12-16T07:27:54.067Z,31.83
2022-12-16T07:30:39.964Z,34.90
2022-12-16T07:33:26.838Z,31.98
2022-12-16T07:36:13.108Z,34.33
2022-12-16T07:38:59.035Z,32.88
2022-12-16T07:41:44.915Z,32.65
2022-12-16T07:44:30.909Z,32.30
2022-12-16T07:47:16.893Z,33.95
2022-12-16T07:50:03.866Z,33.30
2022-12-16T07:52:49.961Z,32.72
2022-12-16T07:55:36.751Z,32.35
2022-12-16T07:58:22.515Z,31.58
2022-12-16T08:01:09.873Z,33.50
2022-12-16T08:03:56.127Z,31.15
2022-12-16T08:06:42.159Z,33.75
2022-12-16T08:09:28.113Z,31.77
2022-12-16T08:12:13.847Z,33.88
2022-12-16T08:14:59.454Z,33.63
2022-12-16T08:17:59.264Z,36.55
2022-12-16T08:20:45.147Z,36.05
2022-12-16T08:23:31.623Z,34.55
2022-12-16T08:26:17.852Z,34.58
2022-12-16T08:32:18.212Z,34.90
2022-12-16T08:35:07.300Z,34.65
2022-12-16T08:37:54.577Z,33.28
2022-12-16T08:40:41.229Z,37.90
2022-12-16T08:43:27.185Z,34.72
2022-12-16T08:46:13.176Z,33.83
2022-12-16T08:48:59.165Z,34.03
2022-12-16T08:51:45.859Z,34.85
2022-12-16T08:54:32.392Z,33.95
2022-12-16T08:57:18.324Z,33.83
2022-12-16T09:00:04.307Z,33.58
2022-12-16T09:02:50.263Z,32.83
2022-12-16T09:05:37.092Z,33.47
2022-12-16T09:08:23.306Z,32.63
2022-12-16T09:11:09.055Z,34.03
2022-12-16T09:13:54.941Z,32.25
2022-12-16T09:16:42.895Z,34.90
2022-12-16T09:19:29.024Z,33.15
2022-12-16T09:22:15.062Z,33.65
2022-12-16T09:25:01.590Z,33.00
2022-12-16T09:27:47.729Z,32.28
2022-12-16T09:30:33.779Z,32.53
2022-12-16T09:33:21.011Z,32.80
2022-12-16T09:36:06.847Z,31.58
2022-12-16T09:38:52.827Z,31.00
2022-12-16T09:41:45.197Z,34.80
2022-12-16T09:44:34.447Z,34.70
2022-12-16T09:47:31.756Z,34.22
2022-12-16T09:50:18.195Z,34.38
2022-12-16T09:53:14.606Z,32.40
2022-12-16T09:56:03.421Z,32.75
2022-12-16T09:59:05.255Z,32.45
2022-12-16T10:01:56.620Z,31.90
2022-12-16T10:04:43.603Z,30.98
2022-12-16T10:07:51.184Z,32.40
2022-12-16T10:10:43.147Z,32.55
2022-12-16T10:13:55.337Z,31.65
2022-12-16T10:16:52.806Z,33.00
2022-12-16T10:20:09.410Z,32.50
2022-12-16T10:23:16.255Z,31.30
2022-12-16T10:26:18.659Z,31.60
2022-12-16T10:29:14.629Z,32.15
2022-12-16T10:32:01.213Z,31.73
2022-12-16T10:34:54.537Z,32.58
2022-12-16T10:37:52.944Z,32.38
2022-12-16T10:40:43.518Z,31.55
2022-12-16T10:43:40.244Z,32.33
2022-12-16T10:46:34.785Z,30.58
2022-12-16T10:49:20.629Z,31.10
2022-12-16T10:52:09.174Z,32.22
2022-12-16T10:55:02.879Z,33.05
2022-12-16T10:58:07.372Z,31.30
2022-12-16T11:01:11.574Z,31.98
2022-12-16T11:04:01.176Z,33.13
2022-12-16T11:06:58.365Z,34.22
2022-12-16T11:09:53.799Z,33.35
2022-12-16T11:12:50.503Z,31.85
2022-12-16T11:15:56.649Z,32.03
2022-12-16T11:18:44.254Z,34.88
2022-12-16T11:21:40.715Z,33.97
2022-12-16T11:24:32.155Z,33.22
2022-12-16T11:27:40.355Z,33.78
2022-12-16T11:30:32.206Z,34.47
2022-12-16T11:33:23.640Z,33.85
2022-12-16T11:36:13.716Z,33.15
2022-12-16T11:39:04.653Z,36.30
2022-12-16T11:44:52.757Z,33.42
2022-12-16T11:48:05.017Z,37.50
2022-12-16T11:50:56.450Z,36.92
2022-12-16T11:53:50.624Z,37.05
2022-12-16T11:56:43.231Z,36.00
2022-12-16T11:59:58.057Z,36.03
2022-12-16T12:03:15.322Z,35.53
2022-12-16T12:06:25.077Z,36.78
2022-12-16T12:09:28.829Z,35.95
2022-12-16T12:12:53.600Z,37.63
2022-12-16T12:16:02.003Z,41.25
2022-12-16T12:19:08.903Z,41.97
2022-12-16T12:22:16.470Z,36.03
2022-12-16T12:25:20.188Z,34.53
2022-12-16T12:28:13.039Z,34.17
2022-12-16T12:31:14.987Z,33.50
2022-12-16T12:34:39.258Z,34.45
2022-12-16T12:37:42.284Z,34.72
2022-12-16T12:40:38.516Z,32.03
2022-12-16T12:43:55.651Z,32.00
2022-12-16T12:46:53.684Z,33.58
2022-12-16T12:49:54.336Z,33.97
2022-12-16T12:53:02.776Z,33.65
2022-12-16T12:56:15.701Z,33.28
2022-12-16T12:59:04.914Z,33.72
2022-12-16T13:01:53.999Z,34.35
2022-12-16T13:04:46.502Z,33.55
2022-12-16T13:07:32.931Z,207.60
2022-12-16T13:10:36.486Z,37.78
2022-12-16T13:13:35.291Z,34.95
2022-12-16T13:16:23.682Z,151.23
2022-12-16T13:19:47.628Z,163.18
2022-12-16T13:22:51.872Z,190.80
2022-12-16T13:26:09.699Z,126.95
2022-12-16T13:28:59.595Z,120.05
2022-12-16T13:31:47.608Z,114.77
2022-12-16T13:34:33.441Z,46.95
2022-12-16T13:37:28.232Z,47.53
2022-12-16T13:40:44.299Z,42.95
2022-12-16T13:44:12.473Z,39.92
2022-12-16T13:47:04.808Z,41.35
2022-12-16T13:50:10.728Z,39.65
2022-12-16T13:52:56.723Z,39.28
2022-12-16T13:55:50.928Z,40.45
2022-12-16T13:58:44.957Z,37.13
2022-12-16T14:01:34.999Z,38.60
2022-12-16T14:04:28.052Z,28.05
2022-12-16T14:07:24.374Z,39.10
2022-12-16T14:10:14.278Z,37.25
2022-12-16T14:13:25.640Z,37.33
2022-12-16T14:16:28.480Z,39.35
2022-12-16T14:19:32.992Z,38.25
2022-12-16T14:22:34.549Z,38.95
2022-12-16T14:25:32.162Z,37.85
2022-12-16T14:28:19.243Z,39.72
2022-12-16T14:31:05.417Z,38.08
2022-12-16T14:33:52.448Z,39.35
2022-12-16T14:36:44.075Z,38.22
2022-12-16T14:39:50.364Z,37.35
2022-12-16T14:42:41.270Z,36.30
2022-12-16T14:48:57.237Z,37.55
2022-12-16T14:51:47.626Z,36.63
2022-12-16T14:54:36.877Z,37.30
2022-12-16T14:57:24.751Z,36.88
2022-12-16T15:00:28.474Z,35.45
2022-12-16T15:03:27.335Z,36.55
2022-12-16T15:06:15.335Z,41.05
2022-12-16T15:09:13.475Z,39.92
2022-12-16T15:12:02.471Z,42.63
2022-12-16T15:14:52.348Z,43.95
2022-12-16T15:17:48.310Z,43.47
2022-12-16T15:20:43.896Z,47.22
2022-12-16T15:23:43.155Z,46.45
2022-12-16T15:26:39.891Z,42.95
2022-12-16T15:29:56.751Z,45.75
2022-12-16T15:32:46.597Z,43.63
2022-12-16T15:35:44.739Z,31.13
2022-12-16T15:38:33.887Z,43.28
2022-12-16T15:41:22.102Z,44.20
2022-12-16T15:44:09.203Z,43.65
2022-12-16T15:46:56.573Z,44.80
2022-12-16T15:49:52.107Z,49.90
2022-12-16T15:52:56.135Z,46.67
2022-12-16T15:56:04.833Z,46.17
2022-12-16T15:58:55.180Z,48.00
2022-12-16T16:01:46.365Z,47.72
2022-12-16T16:04:41.029Z,47.65
2022-12-16T16:07:34.610Z,52.08
2022-12-16T16:10:37.422Z,52.70
2022-12-16T16:13:24.445Z,51.63
2022-12-16T16:16:13.530Z,52.42
2022-12-16T16:19:02.804Z,44.00
2022-12-16T16:21:48.752Z,54.65
2022-12-16T16:24:34.619Z,53.45
2022-12-16T16:27:23.674Z,51.15
2022-12-16T16:30:09.436Z,49.72
2022-12-16T16:32:55.669Z,47.80
2022-12-16T16:35:41.846Z,49.00
2022-12-16T16:38:30.729Z,47.45
2022-12-16T16:41:16.972Z,49.67
2022-12-16T16:44:02.874Z,50.92
2022-12-16T16:46:55.472Z,48.80
2022-12-16T16:49:47.075Z,48.65
2022-12-16T16:52:36.402Z,47.97
2022-12-16T16:55:23.382Z,46.58
2022-12-16T16:58:09.531Z,44.63
2022-12-16T17:00:55.486Z,46.42
2022-12-16T17:03:42.190Z,45.33
2022-12-16T17:06:28.481Z,46.92
2022-12-16T17:09:14.735Z,46.08
2022-12-16T17:12:01.149Z,44.22
2022-12-16T17:14:47.111Z,44.10
2022-12-16T17:17:33.095Z,44.78
2022-12-16T17:20:19.158Z,42.50
2022-12-16T17:23:05.555Z,43.15
2022-12-16T17:25:52.379Z,43.58
2022-12-16T17:28:38.589Z,41.90
2022-12-16T17:31:24.570Z,39.25
2022-12-16T17:34:10.428Z,39.35
2022-12-16T17:36:56.726Z,38.20
2022-12-16T17:39:42.581Z,38.78
2022-12-16T17:42:28.423Z,38.42
2022-12-16T17:45:14.424Z,43.97
2022-12-16T17:48:02.871Z,38.60
2022-12-16T17:50:49.567Z,37.50
2022-12-16T17:53:37.620Z,39.15
2022-12-16T17:56:25.536Z,39.35
2022-12-16T17:59:11.688Z,39.38
2022-12-16T18:01:57.810Z,42.60
2022-12-16T18:04:43.979Z,41.75
2022-12-16T18:07:29.892Z,37.15
2022-12-16T18:10:15.817Z,38.03
2022-12-16T18:13:01.864Z,41.67
2022-12-16T18:15:47.930Z,42.10
2022-12-16T18:18:34.132Z,40.40
2022-12-16T18:21:31.757Z,40.88
2022-12-16T18:24:17.929Z,40.00
2022-12-16T18:27:04.748Z,39.72
2022-12-16T18:29:50.933Z,45.90
2022-12-16T18:32:36.745Z,52.42
2022-12-16T18:35:23.636Z,43.03
2022-12-16T18:38:14.778Z,40.45
2022-12-16T18:41:02.711Z,38.35
2022-12-16T18:43:48.716Z,39.30
2022-12-16T18:46:34.605Z,38.72
2022-12-16T18:49:20.485Z,39.70
2022-12-16T18:52:06.397Z,41.92
2022-12-16T18:54:52.323Z,41.03
2022-12-16T18:57:39.976Z,42.25
2022-12-16T19:00:27.425Z,40.45
2022-12-16T19:03:13.906Z,43.10
2022-12-16T19:05:59.733Z,44.72
2022-12-16T19:08:48.730Z,40.10
2022-12-16T19:11:34.477Z,44.63
2022-12-16T19:14:20.345Z,42.17
2022-12-16T19:17:09.404Z,45.75
2022-12-16T19:19:55.150Z,49.83
2022-12-16T19:22:54.871Z,48.17
2022-12-16T19:25:42.247Z,42.75
2022-12-16T19:28:35.455Z,40.25
2022-12-16T19:31:21.741Z,44.50
2022-12-16T19:34:12.285Z,46.90
2022-12-16T19:36:59.602Z,47.38
2022-12-16T19:39:48.279Z,46.67
2022-12-16T19:42:34.103Z,43.30
2022-12-16T19:45:20.038Z,43.30
2022-12-16T19:48:05.999Z,45.35
2022-12-16T19:50:51.925Z,44.45
2022-12-16T19:53:38.130Z,41.92
2022-12-16T19:56:24.409Z,40.80
2022-12-16T19:59:11.545Z,45.85
2022-12-16T20:02:02.663Z,40.13
2022-12-16T20:04:51.456Z,47.78
2022-12-16T20:07:38.185Z,43.88
2022-12-16T20:10:24.727Z,44.90
2022-12-16T20:13:10.527Z,47.50
2022-12-16T20:15:56.649Z,47.53
2022-12-16T20:18:42.688Z,37.60
2022-12-16T20:21:28.739Z,45.00
2022-12-16T20:24:18.108Z,54.22
2022-12-16T20:27:06.489Z,44.08
2022-12-16T20:29:52.465Z,46.88
2022-12-16T20:32:40.737Z,38.17
2022-12-16T20:35:26.620Z,43.13
2022-12-16T20:38:12.749Z,46.42
2022-12-16T20:40:58.778Z,44.63
2022-12-16T20:43:44.770Z,42.80
2022-12-16T20:46:30.891Z,50.72
2022-12-16T20:49:19.468Z,47.95
2022-12-16T20:52:05.696Z,46.50
2022-12-16T20:54:51.798Z,43.85
2022-12-16T20:57:44.099Z,39.13
2022-12-16T21:00:44.959Z,38.58
2022-12-16T21:06:17.159Z,30.67
2022-12-16T21:09:03.053Z,31.52
2022-12-16T21:11:49.439Z,34.67
2022-12-16T21:14:35.359Z,32.88
2022-12-16T21:17:23.517Z,30.17
2022-12-16T21:20:09.515Z,27.38
2022-12-16T21:22:59.811Z,30.10
2022-12-16T21:25:49.331Z,29.67
2022-12-16T21:28:35.331Z,26.63
2022-12-16T21:31:21.315Z,28.65
2022-12-16T21:34:07.411Z,26.58
2022-12-16T21:36:53.359Z,33.95
2022-12-16T21:39:46.970Z,31.20
2022-12-16T21:42:36.734Z,27.70
2022-12-16T21:45:25.055Z,28.30
2022-12-16T21:48:14.997Z,26.08
2022-12-16T21:51:01.685Z,21.77
2022-12-16T21:54:06.364Z,21.67
2022-12-16T22:00:00.239Z,29.95
2022-12-16T22:02:46.442Z,25.95
2022-12-16T22:05:32.186Z,26.70
2022-12-16T22:08:26.229Z,25.92
2022-12-16T22:11:12.760Z,23.40
2022-12-16T22:13:58.807Z,22.55
2022-12-16T22:16:45.678Z,26.17
2022-12-16T22:19:31.647Z,25.23
2022-12-16T22:22:20.250Z,22.85
2022-12-16T22:25:12.565Z,23.58
2022-12-16T22:28:00.270Z,23.88
2022-12-16T22:30:46.192Z,24.98
2022-12-16T22:33:32.976Z,24.90
2022-12-16T22:36:24.427Z,23.58
2022-12-16T22:39:10.640Z,26.70
2022-12-16T22:41:56.606Z,25.08
2022-12-16T22:44:44.675Z,26.27
2022-12-16T22:47:30.602Z,25.95
2022-12-16T22:50:16.609Z,26.65
2022-12-16T22:53:07.620Z,27.80
2022-12-16T22:55:56.201Z,24.77
2022-12-16T22:58:46.341Z,25.73
2022-12-16T23:01:32.617Z,33.22
2022-12-16T23:04:18.712Z,29.35
2022-12-16T23:07:04.591Z,30.40
2022-12-16T23:09:50.560Z,24.50
2022-12-16T23:12:36.642Z,27.38
2022-12-16T23:15:26.333Z,24.90
2022-12-16T23:18:14.639Z,25.95
2022-12-16T23:21:09.668Z,26.20
2022-12-16T23:23:56.953Z,26.88
2022-12-16T23:26:43.091Z,25.88
2022-12-16T23:29:30.936Z,27.52
2022-12-16T23:32:16.980Z,28.05
2022-12-16T23:35:02.890Z,26.13
2022-12-16T23:37:49.668Z,25.80
2022-12-16T23:40:36.422Z,25.65
2022-12-16T23:43:22.545Z,24.23
2022-12-16T23:46:08.623Z,27.60
2022-12-16T23:48:54.530Z,25.15
2022-12-16T23:51:41.321Z,24.58
2022-12-16T23:54:27.209Z,23.92
2022-12-16T23:57:12.991Z,21.83
2022-12-16T23:59:59.594Z,29.00
